Time;durP1;ratioP1;P1;durP2;ratioP2;P2;SDS_P1;SDS_P2;PMS_P1;PMS_P2;Temp;Humidity;BMP_temperature;BMP_pressure;BME280_temperature;BME280_humidity;BME280_pressure;Samples;Min_cycle;Max_cycle;Signal;HPM_P1;HPM_P2
2021/04/21 00:00:50;;;;;;;15.80;5.30;;;11.40;85.00;;;;;;5071198;28;20445;-49
2021/04/21 00:03:17;;;;;;;15.97;6.30;;;11.40;86.40;;;;;;5070940;28;20480;-49
2021/04/21 00:05:44;;;;;;;18.03;7.00;;;11.10;86.60;;;;;;5072126;28;20472;-48
2021/04/21 00:08:11;;;;;;;12.77;6.27;;;11.10;86.80;;;;;;5071296;28;20430;-48
2021/04/21 00:10:38;;;;;;;9.40;5.63;;;11.40;87.70;;;;;;5071106;28;20438;-48
2021/04/21 00:13:07;;;;;;;9.30;5.63;;;11.00;88.00;;;;;;5070955;28;20426;-48
2021/04/21 00:15:34;;;;;;;12.50;5.43;;;11.10;88.70;;;;;;5071210;28;20524;-49
2021/04/21 00:18:03;;;;;;;8.90;6.47;;;10.80;88.70;;;;;;5070804;28;20434;-49
2021/04/21 00:20:33;;;;;;;8.73;5.90;;;10.20;88.70;;;;;;5070707;28;20524;-49
2021/04/21 00:23:03;;;;;;;13.57;6.27;;;10.80;89.80;;;;;;5069047;28;20630;-50
2021/04/21 00:25:33;;;;;;;8.90;6.20;;;11.00;90.00;;;;;;5070671;28;20968;-50
2021/04/21 00:28:01;;;;;;;8.93;5.70;;;10.90;90.40;;;;;;5070900;28;20792;-49
2021/04/21 00:30:29;;;;;;;10.23;6.10;;;10.60;90.30;;;;;;5070839;28;20782;-50
2021/04/21 00:32:58;;;;;;;12.03;6.30;;;11.00;90.90;;;;;;5070465;28;20418;-50
2021/04/21 00:35:27;;;;;;;10.70;5.93;;;11.20;91.30;;;;;;5070960;28;20541;-50
2021/04/21 00:37:56;;;;;;;9.53;5.87;;;11.10;91.40;;;;;;5070845;28;20525;-49
2021/04/21 00:40:29;;;;;;;10.97;6.40;;;10.70;91.20;;;;;;5070787;28;20520;-50
2021/04/21 00:43:01;;;;;;;10.27;6.23;;;10.60;91.30;;;;;;5070381;28;20481;-50
2021/04/21 00:45:35;;;;;;;10.80;7.30;;;10.60;91.70;;;;;;5069207;28;20565;-49
2021/04/21 00:48:14;;;;;;;9.90;6.50;;;11.10;92.10;;;;;;5068564;28;20438;-49
2021/04/21 00:50:46;;;;;;;8.70;5.63;;;10.60;91.70;;;;;;5070307;28;20445;-50
2021/04/21 00:53:17;;;;;;;9.30;7.20;;;10.40;92.00;;;;;;5070068;28;20434;-50
2021/04/21 00:56:01;;;;;;;12.80;7.10;;;10.30;91.90;;;;;;5068849;28;20515;-50
2021/04/21 00:58:43;;;;;;;13.90;7.00;;;10.50;92.20;;;;;;5068897;28;20449;-50
2021/04/21 01:01:11;;;;;;;9.63;6.83;;;10.40;92.10;;;;;;5070530;28;20432;-49
2021/04/21 01:03:40;;;;;;;11.53;5.87;;;10.00;92.10;;;;;;5068709;28;20458;-50
2021/04/21 01:06:10;;;;;;;9.77;6.40;;;10.40;92.50;;;;;;5070429;28;20441;-49
2021/04/21 01:08:42;;;;;;;12.00;6.70;;;10.50;92.70;;;;;;5070623;28;20511;-49
2021/04/21 01:11:13;;;;;;;16.03;6.40;;;10.50;92.70;;;;;;5070687;28;20426;-50
2021/04/21 01:13:47;;;;;;;13.90;6.67;;;10.40;92.60;;;;;;5068604;28;20522;-50
2021/04/21 01:16:15;;;;;;;9.10;6.17;;;10.30;93.00;;;;;;5068910;28;20462;-49
2021/04/21 01:18:46;;;;;;;8.90;5.30;;;10.40;93.20;;;;;;5070680;28;20457;-49
2021/04/21 01:21:16;;;;;;;13.90;6.50;;;10.10;93.00;;;;;;5070293;28;20529;-50
2021/04/21 01:23:58;;;;;;;11.17;6.33;;;10.40;93.00;;;;;;5069789;28;20425;-49
2021/04/21 01:26:46;;;;;;;10.50;7.60;;;10.40;93.30;;;;;;5069542;28;20453;-50
2021/04/21 01:29:20;;;;;;;9.43;6.10;;;10.50;93.50;;;;;;5070508;28;20524;-49
2021/04/21 01:31:47;;;;;;;11.40;6.13;;;10.50;93.50;;;;;;5070217;28;20430;-49
2021/04/21 01:34:17;;;;;;;10.53;6.40;;;10.30;93.50;;;;;;5069794;28;20436;-49
2021/04/21 01:36:45;;;;;;;11.30;6.33;;;10.40;93.60;;;;;;5070256;28;20593;-50
2021/04/21 01:39:13;;;;;;;9.80;6.00;;;10.10;93.60;;;;;;5069727;28;20853;-50
2021/04/21 01:41:43;;;;;;;11.70;6.90;;;10.70;94.00;;;;;;5069971;28;20572;-50
2021/04/21 01:44:14;;;;;;;12.93;7.13;;;10.30;93.90;;;;;;5069524;28;20426;-50
2021/04/21 01:46:42;;;;;;;11.03;5.93;;;10.00;93.70;;;;;;5069944;28;20457;-49
2021/04/21 01:50:00;;;;;;;12.13;6.00;;;10.20;93.90;;;;;;5070191;28;20462;-50
2021/04/21 01:52:41;;;;;;;9.83;6.37;;;10.00;93.80;;;;;;5069753;28;20482;-49
2021/04/21 01:55:26;;;;;;;7.33;5.50;;;9.90;94.20;;;;;;5069652;28;20878;-50
2021/04/21 01:57:57;;;;;;;14.27;5.70;;;10.10;93.80;;;;;;5069822;28;20495;-50
2021/04/21 02:00:33;;;;;;;8.17;5.83;;;10.00;93.70;;;;;;5072548;28;20426;-49
2021/04/21 02:03:14;;;;;;;13.37;6.10;;;9.90;94.30;;;;;;5073298;28;20572;-50
2021/04/21 02:05:53;;;;;;;12.20;6.43;;;10.30;94.10;;;;;;5073419;28;20457;-50
2021/04/21 02:08:26;;;;;;;11.83;5.40;;;9.90;94.60;;;;;;5073331;28;20530;-50
2021/04/21 02:11:01;;;;;;;12.30;7.30;;;9.70;94.50;;;;;;5073460;28;20499;-50
2021/04/21 02:13:34;;;;;;;13.07;6.90;;;9.90;94.70;;;;;;5073063;28;20433;-50
2021/04/21 02:16:20;;;;;;;13.57;7.23;;;9.40;94.30;;;;;;5073251;28;20542;-49
2021/04/21 02:18:56;;;;;;;15.93;8.00;;;9.80;94.80;;;;;;5072921;28;20850;-49
2021/04/21 02:21:26;;;;;;;10.47;6.50;;;9.70;94.90;;;;;;5073055;28;20457;-50
2021/04/21 02:23:57;;;;;;;10.63;6.83;;;9.80;95.00;;;;;;5072661;28;20462;-49
2021/04/21 02:26:30;;;;;;;11.23;6.30;;;9.50;95.00;;;;;;5072831;28;20985;-50
2021/04/21 02:29:00;;;;;;;15.67;7.30;;;9.80;95.20;;;;;;5072759;28;20430;-50
2021/04/21 02:31:37;;;;;;;11.90;7.23;;;10.00;94.80;;;;;;5072969;28;20433;-49
2021/04/21 02:34:12;;;;;;;14.03;6.03;;;9.90;95.40;;;;;;5071320;28;20464;-51
2021/04/21 02:36:44;;;;;;;14.33;7.20;;;9.80;95.50;;;;;;5072823;28;20806;-50
2021/04/21 02:39:17;;;;;;;9.57;6.37;;;9.60;95.30;;;;;;5072873;28;20487;-50
2021/04/21 02:41:51;;;;;;;12.27;6.67;;;9.60;95.70;;;;;;5071281;28;21193;-49
2021/04/21 02:44:28;;;;;;;8.83;5.63;;;9.60;95.70;;;;;;5072413;28;20491;-49
2021/04/21 02:47:01;;;;;;;10.43;5.90;;;9.70;95.90;;;;;;5072783;28;20536;-49
2021/04/21 02:49:40;;;;;;;13.23;6.00;;;9.70;96.00;;;;;;5072542;28;20426;-49
2021/04/21 02:52:11;;;;;;;9.90;5.60;;;9.40;96.10;;;;;;5071410;28;20427;-49
2021/04/21 02:54:50;;;;;;;14.20;5.10;;;9.50;96.40;;;;;;5071707;28;20434;-50
2021/04/21 02:57:22;;;;;;;12.17;6.10;;;9.00;96.40;;;;;;5072414;28;20519;-50
2021/04/21 02:59:52;;;;;;;10.50;6.13;;;9.80;96.80;;;;;;5072341;28;20571;-50
2021/04/21 03:02:28;;;;;;;12.47;6.93;;;9.10;96.70;;;;;;5071885;28;20476;-49
2021/04/21 03:05:01;;;;;;;18.20;6.47;;;9.40;97.10;;;;;;5072424;28;20774;-50
2021/04/21 03:07:36;;;;;;;10.93;6.40;;;9.00;97.10;;;;;;5072287;28;20430;-50
2021/04/21 03:10:06;;;;;;;10.70;5.20;;;9.10;97.20;;;;;;5072237;28;20457;-49
2021/04/21 03:12:34;;;;;;;8.80;5.57;;;9.20;97.30;;;;;;5071065;28;20441;-51
2021/04/21 03:15:05;;;;;;;9.97;6.00;;;9.10;97.50;;;;;;5072009;28;20424;-49
2021/04/21 03:17:32;;;;;;;12.00;5.80;;;9.20;97.50;;;;;;5072223;28;20525;-49
2021/04/21 03:20:03;;;;;;;8.60;5.47;;;9.20;97.90;;;;;;5072020;28;20491;-49
2021/04/21 03:22:31;;;;;;;13.87;6.27;;;9.30;98.10;;;;;;5071437;28;20951;-49
2021/04/21 03:25:02;;;;;;;10.90;5.57;;;9.10;98.20;;;;;;5071641;28;20468;-49
2021/04/21 03:27:32;;;;;;;8.37;5.00;;;9.20;98.20;;;;;;5071594;28;20429;-50
2021/04/21 03:30:01;;;;;;;10.80;5.27;;;9.00;98.50;;;;;;5071681;28;20507;-50
2021/04/21 03:32:32;;;;;;;9.10;6.33;;;9.00;98.50;;;;;;5071339;28;20528;-50
2021/04/21 03:35:01;;;;;;;8.03;5.70;;;8.70;98.40;;;;;;5071748;28;20509;-50
2021/04/21 03:37:35;;;;;;;10.70;5.80;;;8.80;98.40;;;;;;5071812;28;20526;-48
2021/04/21 03:40:03;;;;;;;8.83;5.83;;;8.80;99.00;;;;;;5071559;28;20856;-49
2021/04/21 03:42:29;;;;;;;16.77;7.10;;;8.80;98.80;;;;;;5071405;28;20487;-49
2021/04/21 03:44:55;;;;;;;17.83;7.77;;;8.90;99.00;;;;;;5071690;28;20511;-49
2021/04/21 03:47:22;;;;;;;14.43;6.83;;;9.00;99.20;;;;;;5071547;28;20621;-49
2021/04/21 03:49:50;;;;;;;12.30;6.53;;;9.00;99.10;;;;;;5071444;28;20524;-50
2021/04/21 03:52:21;;;;;;;15.67;7.13;;;8.80;99.10;;;;;;5071173;28;20441;-50
2021/04/21 03:54:48;;;;;;;12.97;6.30;;;9.00;99.40;;;;;;5070913;28;20796;-49
2021/04/21 03:57:15;;;;;;;11.67;6.73;;;9.20;99.60;;;;;;5071155;28;20521;-50
2021/04/21 03:59:43;;;;;;;12.53;6.40;;;8.70;99.50;;;;;;5071058;28;20439;-49
2021/04/21 04:02:13;;;;;;;12.33;6.23;;;9.00;99.30;;;;;;5070968;28;20506;-50
2021/04/21 04:04:41;;;;;;;14.70;6.43;;;8.50;99.50;;;;;;5070782;28;20469;-48
2021/04/21 04:07:11;;;;;;;14.73;7.00;;;9.10;99.50;;;;;;5070817;28;20464;-50
2021/04/21 04:09:42;;;;;;;13.00;6.60;;;8.70;99.30;;;;;;5070854;28;20638;-51
2021/04/21 04:12:11;;;;;;;11.50;6.10;;;9.10;99.60;;;;;;5071101;28;20917;-50
2021/04/21 04:14:40;;;;;;;13.47;6.60;;;8.80;99.50;;;;;;5070207;28;20533;-49
2021/04/21 04:17:07;;;;;;;12.57;6.50;;;8.30;99.40;;;;;;5070616;28;20457;-49
2021/04/21 04:19:35;;;;;;;14.93;6.80;;;8.70;99.30;;;;;;5070774;28;20611;-50
2021/04/21 04:22:06;;;;;;;22.33;7.60;;;8.70;99.50;;;;;;5070700;28;20652;-50
2021/04/21 04:24:41;;;;;;;19.00;7.20;;;8.90;99.70;;;;;;5070294;28;20459;-50
2021/04/21 04:27:13;;;;;;;18.70;6.63;;;9.00;99.70;;;;;;5070802;28;20453;-49
2021/04/21 04:29:41;;;;;;;18.80;6.77;;;8.80;99.70;;;;;;5071844;28;20528;-49
2021/04/21 04:32:12;;;;;;;16.27;7.83;;;8.80;99.60;;;;;;5070784;28;20433;-50
2021/04/21 04:34:42;;;;;;;12.73;7.07;;;8.90;99.60;;;;;;5070078;28;20430;-50
2021/04/21 04:37:09;;;;;;;20.77;7.50;;;8.90;99.40;;;;;;5070182;28;20448;-50
2021/04/21 04:39:36;;;;;;;12.87;6.90;;;8.80;99.20;;;;;;5070135;28;20943;-49
2021/04/21 04:42:04;;;;;;;14.57;7.07;;;8.90;99.20;;;;;;5070208;28;20552;-49
2021/04/21 04:44:31;;;;;;;13.43;6.53;;;8.80;98.60;;;;;;5069695;28;20430;-50
2021/04/21 04:47:02;;;;;;;10.30;6.67;;;8.80;98.60;;;;;;5070180;28;20461;-49
2021/04/21 04:49:34;;;;;;;11.73;6.40;;;8.70;98.40;;;;;;5070281;28;20432;-49
2021/04/21 04:52:02;;;;;;;10.80;5.73;;;8.80;98.10;;;;;;5070276;28;20461;-49
2021/04/21 04:54:29;;;;;;;11.80;6.50;;;8.90;97.90;;;;;;5069834;28;20928;-50
2021/04/21 04:56:55;;;;;;;10.43;6.50;;;9.00;98.10;;;;;;5096195;22;20590;-46
2021/04/21 04:59:27;;;;;;;17.10;7.33;;;8.90;98.00;;;;;;5071449;28;20484;-46
2021/04/21 05:01:57;;;;;;;12.50;6.90;;;9.00;97.90;;;;;;5071608;28;20403;-46
2021/04/21 05:04:29;;;;;;;11.67;6.83;;;9.40;97.90;;;;;;5071075;28;20861;-47
2021/04/21 05:07:02;;;;;;;15.50;8.00;;;9.30;97.70;;;;;;5071313;28;21040;-47
2021/04/21 05:09:31;;;;;;;27.17;7.97;;;9.20;97.40;;;;;;5071117;28;20464;-47
2021/04/21 05:11:58;;;;;;;17.83;9.97;;;8.90;97.10;;;;;;5070997;28;20437;-47
2021/04/21 05:14:26;;;;;;;13.53;8.30;;;8.60;96.90;;;;;;5069390;28;20507;-46
2021/04/21 05:17:34;;;;;;;19.33;8.90;;;9.10;97.10;;;;;;5070463;28;20560;-45
2021/04/21 05:20:38;;;;;;;12.37;8.10;;;9.40;97.10;;;;;;5070811;28;20445;-46
2021/04/21 05:23:46;;;;;;;10.97;7.43;;;9.50;96.80;;;;;;5074231;28;21013;-46
2021/04/21 05:26:47;;;;;;;21.13;7.70;;;9.50;96.10;;;;;;5069499;28;20569;-45
2021/04/21 05:29:53;;;;;;;10.97;7.70;;;9.60;95.80;;;;;;5074497;28;20440;-46
2021/04/21 05:33:16;;;;;;;19.10;8.40;;;9.70;95.60;;;;;;5071456;28;20430;-46
2021/04/21 05:36:38;;;;;;;11.63;7.47;;;9.90;95.50;;;;;;5073924;28;20453;-46
2021/04/21 05:39:50;;;;;;;10.53;7.60;;;10.00;94.80;;;;;;5074029;28;20429;-46
2021/04/21 05:43:02;;;;;;;13.67;7.80;;;10.30;94.70;;;;;;5072505;28;20522;-46
2021/04/21 05:45:54;;;;;;;15.37;8.17;;;10.40;94.30;;;;;;5074862;28;20456;-46
2021/04/21 05:48:56;;;;;;;15.93;7.77;;;10.30;93.90;;;;;;5037423;28;20497;-47
2021/04/21 05:51:48;;;;;;;14.43;7.70;;;10.50;93.70;;;;;;5074326;28;20425;-46
2021/04/21 05:54:41;;;;;;;14.33;7.67;;;10.50;93.20;;;;;;5075095;28;20530;-47
2021/04/21 05:58:03;;;;;;;17.90;7.37;;;10.40;93.20;;;;;;5074472;28;20834;-46
2021/04/21 06:01:02;;;;;;;9.80;6.83;;;10.80;93.30;;;;;;5074478;28;20460;-46
2021/04/21 06:03:32;;;;;;;12.93;7.97;;;11.30;93.20;;;;;;5074013;28;20465;-46
2021/04/21 06:06:02;;;;;;;14.63;8.00;;;11.10;92.40;;;;;;5073758;28;20534;-46
2021/04/21 06:08:29;;;;;;;13.77;7.80;;;11.20;92.40;;;;;;5073918;28;20954;-46
2021/04/21 06:10:56;;;;;;;12.43;7.67;;;11.00;92.10;;;;;;5073934;28;20693;-45
2021/04/21 06:13:27;;;;;;;16.60;7.80;;;11.00;91.80;;;;;;5072127;28;20449;-45
2021/04/21 06:15:54;;;;;;;15.00;8.33;;;11.10;91.80;;;;;;5073660;28;20931;-45
2021/04/21 06:18:22;;;;;;;10.20;7.00;;;11.30;91.60;;;;;;5073379;28;20491;-47
2021/04/21 06:20:49;;;;;;;12.60;7.17;;;11.30;91.20;;;;;;5073033;28;20434;-47
2021/04/21 06:23:17;;;;;;;14.93;10.10;;;11.40;91.30;;;;;;5072908;28;20872;-46
2021/04/21 06:25:46;;;;;;;14.57;8.30;;;11.40;90.90;;;;;;5073541;28;20477;-46
2021/04/21 06:28:15;;;;;;;11.70;7.60;;;11.50;90.30;;;;;;5073674;28;20433;-46
2021/04/21 06:30:43;;;;;;;15.53;7.60;;;11.40;90.50;;;;;;5073817;28;20449;-46
2021/04/21 06:33:09;;;;;;;11.83;7.67;;;11.40;90.20;;;;;;5073235;28;20430;-47
2021/04/21 06:35:38;;;;;;;12.93;7.63;;;11.00;89.80;;;;;;5073345;28;20457;-45
2021/04/21 06:38:06;;;;;;;20.13;9.03;;;11.70;89.90;;;;;;5073631;28;20435;-46
2021/04/21 06:40:33;;;;;;;31.40;12.17;;;11.50;90.00;;;;;;5073607;28;20441;-46
2021/04/21 06:43:00;;;;;;;43.43;11.37;;;11.80;90.00;;;;;;5072781;28;20522;-48
2021/04/21 06:45:30;;;;;;;46.57;11.20;;;11.60;88.90;;;;;;5070707;28;20462;-47
2021/04/21 06:47:57;;;;;;;14.10;8.03;;;11.90;89.20;;;;;;5072717;28;20781;-46
2021/04/21 06:50:29;;;;;;;17.53;8.07;;;11.90;88.40;;;;;;5072987;28;20431;-47
2021/04/21 06:53:02;;;;;;;28.03;10.07;;;11.80;88.00;;;;;;5073033;28;20437;-47
2021/04/21 06:55:29;;;;;;;15.30;8.43;;;11.80;87.90;;;;;;5073452;28;20453;-46
2021/04/21 06:57:55;;;;;;;39.80;10.50;;;12.00;87.30;;;;;;5072573;28;20906;-47
2021/04/21 07:00:24;;;;;;;11.33;8.40;;;11.90;86.60;;;;;;5072762;28;20438;-47
2021/04/21 07:02:51;;;;;;;47.93;13.53;;;12.00;85.70;;;;;;5072410;28;20476;-47
2021/04/21 07:05:33;;;;;;;16.47;10.07;;;12.20;86.20;;;;;;5072940;28;20429;-46
2021/04/21 07:08:07;;;;;;;15.83;8.90;;;11.80;85.40;;;;;;5072413;28;20470;-46
2021/04/21 07:10:34;;;;;;;12.90;8.50;;;12.50;85.80;;;;;;5072703;28;20494;-47
2021/04/21 07:13:02;;;;;;;10.40;8.80;;;12.30;83.20;;;;;;5073058;28;20436;-47
2021/04/21 07:15:30;;;;;;;13.60;8.37;;;12.30;83.00;;;;;;5072681;28;20821;-46
2021/04/21 07:18:00;;;;;;;10.53;7.90;;;12.30;83.40;;;;;;5072957;28;20862;-47
2021/04/21 07:20:27;;;;;;;11.60;7.57;;;12.30;81.80;;;;;;5073226;28;20447;-47
2021/04/21 07:22:54;;;;;;;41.43;10.03;;;12.40;79.70;;;;;;5072138;28;20473;-48
2021/04/21 07:25:22;;;;;;;10.50;7.27;;;12.50;77.70;;;;;;5073079;28;20466;-47
2021/04/21 07:27:54;;;;;;;21.43;15.00;;;12.90;75.50;;;;;;5073055;28;20589;-46
2021/04/21 07:30:32;;;;;;;20.87;8.73;;;12.80;75.00;;;;;;5072664;28;20464;-46
2021/04/21 07:32:59;;;;;;;20.27;8.57;;;12.70;74.40;;;;;;5072104;28;20575;-46
2021/04/21 07:35:27;;;;;;;22.57;8.50;;;13.10;74.70;;;;;;5070240;28;20460;-47
2021/04/21 07:37:56;;;;;;;11.73;7.00;;;13.20;73.50;;;;;;5071844;28;20495;-47
2021/04/21 07:40:34;;;;;;;18.53;7.77;;;13.00;73.00;;;;;;5071760;28;20459;-46
2021/04/21 07:43:10;;;;;;;32.47;10.60;;;13.20;72.50;;;;;;5072319;28;20467;-46
2021/04/21 07:45:45;;;;;;;12.33;7.87;;;13.00;72.50;;;;;;5072111;28;20800;-45
2021/04/21 07:48:44;;;;;;;12.13;7.97;;;13.20;72.60;;;;;;5070856;28;20797;-47
2021/04/21 07:51:43;;;;;;;40.07;10.17;;;13.30;71.10;;;;;;5072132;28;20817;-46
2021/04/21 07:54:21;;;;;;;31.43;9.30;;;13.30;71.20;;;;;;4989639;28;20967;-46
2021/04/21 07:57:04;;;;;;;32.23;10.03;;;13.50;70.00;;;;;;4989995;28;20504;-46
2021/04/21 07:59:32;;;;;;;15.00;7.97;;;13.40;69.50;;;;;;5041647;28;20435;-46
2021/04/21 08:02:17;;;;;;;9.73;7.40;;;13.80;69.00;;;;;;5071636;28;20507;-46
2021/04/21 08:04:48;;;;;;;9.87;7.03;;;13.60;66.60;;;;;;5071624;28;20426;-46
2021/04/21 08:07:25;;;;;;;11.00;7.87;;;13.80;66.40;;;;;;5071459;28;20447;-46
2021/04/21 08:09:52;;;;;;;15.60;7.10;;;13.30;65.50;;;;;;5071740;28;20522;-45
2021/04/21 08:12:19;;;;;;;10.57;6.80;;;13.60;65.20;;;;;;5072138;28;20508;-45
2021/04/21 08:14:47;;;;;;;8.70;7.20;;;13.70;62.50;;;;;;5072404;28;20507;-47
2021/04/21 08:17:16;;;;;;;10.13;6.70;;;13.60;63.30;;;;;;5071665;28;20445;-47
2021/04/21 08:19:44;;;;;;;12.73;6.53;;;13.90;63.90;;;;;;5071678;28;20605;-45
2021/04/21 08:22:11;;;;;;;13.13;7.57;;;13.90;63.40;;;;;;5072324;28;20433;-47
2021/04/21 08:24:43;;;;;;;9.50;6.20;;;14.20;62.30;;;;;;5072013;28;20432;-46
2021/04/21 08:27:12;;;;;;;8.20;5.80;;;14.10;62.00;;;;;;5071389;28;20472;-46
2021/04/21 08:29:40;;;;;;;7.53;6.17;;;13.60;60.30;;;;;;5071387;28;20954;-46
2021/04/21 08:32:07;;;;;;;10.33;7.30;;;14.10;61.50;;;;;;5071372;28;20440;-46
2021/04/21 08:34:34;;;;;;;11.23;7.43;;;14.10;62.00;;;;;;5070818;28;20915;-47
2021/04/21 08:37:00;;;;;;;11.97;6.73;;;14.20;61.70;;;;;;5071443;28;20464;-46
2021/04/21 08:39:27;;;;;;;15.60;6.40;;;14.20;61.70;;;;;;5071859;28;20437;-46
2021/04/21 08:41:59;;;;;;;11.60;5.70;;;14.40;61.10;;;;;;5071597;28;20531;-45
2021/04/21 08:44:29;;;;;;;7.43;6.00;;;14.70;61.90;;;;;;5071564;28;20894;-46
2021/04/21 08:46:59;;;;;;;10.00;5.73;;;14.20;60.80;;;;;;5071519;28;20450;-46
2021/04/21 08:49:27;;;;;;;12.10;6.27;;;14.50;60.90;;;;;;5071339;28;20436;-47
2021/04/21 08:51:55;;;;;;;7.57;6.40;;;14.50;59.50;;;;;;5071197;28;20461;-48
2021/04/21 08:54:23;;;;;;;8.57;5.70;;;14.60;57.80;;;;;;5070308;28;20444;-45
2021/04/21 08:56:51;;;;;;;8.47;5.67;;;14.80;58.40;;;;;;5071492;28;20469;-45
2021/04/21 08:59:18;;;;;;;7.83;6.23;;;14.20;57.40;;;;;;5071448;28;20942;-46
2021/04/21 09:01:47;;;;;;;9.30;5.87;;;14.80;57.80;;;;;;5071615;28;20521;-45
2021/04/21 09:04:15;;;;;;;11.00;6.57;;;15.00;57.30;;;;;;5070998;28;20613;-46
2021/04/21 09:06:43;;;;;;;10.10;7.40;;;14.90;57.30;;;;;;5071093;28;20861;-47
2021/04/21 09:09:10;;;;;;;10.90;7.13;;;15.00;56.90;;;;;;5071938;28;20435;-47
2021/04/21 09:11:36;;;;;;;9.47;7.30;;;14.90;57.40;;;;;;5073952;28;21017;-45
2021/04/21 09:14:04;;;;;;;12.87;8.40;;;15.20;57.80;;;;;;5074439;28;20426;-45
2021/04/21 09:16:30;;;;;;;9.27;7.27;;;15.00;58.20;;;;;;5075396;28;20490;-47
2021/04/21 09:18:57;;;;;;;11.80;7.87;;;15.10;58.30;;;;;;5076231;28;20437;-45
2021/04/21 09:21:29;;;;;;;10.83;7.77;;;15.10;58.10;;;;;;5077573;28;20449;-46
2021/04/21 09:23:56;;;;;;;9.90;8.17;;;14.90;58.10;;;;;;5076949;28;20473;-46
2021/04/21 09:26:24;;;;;;;14.33;7.20;;;15.20;58.50;;;;;;5075397;28;20452;-45
2021/04/21 09:28:54;;;;;;;11.20;7.60;;;15.10;58.50;;;;;;5076069;28;20499;-45
2021/04/21 09:31:22;;;;;;;11.27;8.13;;;15.30;58.60;;;;;;5075374;28;20819;-45
2021/04/21 09:34:06;;;;;;;13.40;7.80;;;15.40;57.90;;;;;;5072821;28;20448;-46
2021/04/21 09:36:35;;;;;;;10.37;7.40;;;15.50;57.20;;;;;;5075578;28;20449;-45
2021/04/21 09:39:09;;;;;;;8.73;6.70;;;15.30;56.50;;;;;;5077881;28;20442;-45
2021/04/21 09:41:37;;;;;;;15.97;7.70;;;15.60;57.10;;;;;;5076580;28;20441;-45
2021/04/21 09:44:15;;;;;;;11.10;7.07;;;15.80;57.60;;;;;;5074864;28;20606;-46
2021/04/21 09:46:43;;;;;;;12.50;7.73;;;15.90;57.80;;;;;;5074965;28;20445;-46
2021/04/21 09:49:33;;;;;;;8.93;6.90;;;15.70;56.40;;;;;;5075091;28;20533;-46
2021/04/21 09:52:02;;;;;;;9.23;6.70;;;15.90;56.50;;;;;;5075203;28;20438;-45
2021/04/21 09:54:31;;;;;;;9.23;7.37;;;15.90;56.50;;;;;;5075555;28;20592;-49
2021/04/21 09:57:10;;;;;;;14.80;7.23;;;15.80;55.10;;;;;;5074520;28;20827;-46
2021/04/21 09:59:38;;;;;;;13.40;8.10;;;15.80;54.50;;;;;;5074552;28;20468;-46
2021/04/21 10:02:25;;;;;;;10.20;7.93;;;15.50;53.80;;;;;;5074597;28;20772;-47
2021/04/21 10:04:51;;;;;;;11.47;7.50;;;16.10;54.10;;;;;;5074787;28;20441;-46
2021/04/21 10:07:20;;;;;;;9.67;6.40;;;16.10;54.30;;;;;;5074069;28;20453;-47
2021/04/21 10:09:49;;;;;;;8.67;6.97;;;16.00;54.20;;;;;;5074106;28;20453;-47
2021/04/21 10:12:18;;;;;;;9.83;7.53;;;15.90;54.20;;;;;;5074337;28;20437;-47
2021/04/21 10:14:47;;;;;;;9.57;7.80;;;16.00;54.70;;;;;;5074053;28;20429;-46
2021/04/21 10:17:14;;;;;;;10.70;7.90;;;15.70;54.20;;;;;;5072706;28;20511;-47
2021/04/21 10:19:42;;;;;;;8.50;6.70;;;16.10;54.70;;;;;;5074090;28;20439;-45
2021/04/21 10:22:12;;;;;;;9.73;8.00;;;16.00;54.50;;;;;;5073784;28;20491;-46
2021/04/21 10:24:40;;;;;;;7.93;6.20;;;16.10;54.60;;;;;;5074158;28;20430;-46
2021/04/21 10:27:06;;;;;;;9.57;5.83;;;16.00;54.70;;;;;;5073982;28;20450;-46
2021/04/21 10:29:36;;;;;;;10.97;7.50;;;16.10;54.80;;;;;;5074701;28;20434;-46
2021/04/21 10:32:03;;;;;;;11.57;7.40;;;16.30;55.80;;;;;;5073875;28;20438;-46
2021/04/21 10:34:30;;;;;;;10.67;7.03;;;16.10;53.00;;;;;;5073711;28;20743;-46
2021/04/21 10:40:06;;;;;;;10.07;6.37;;;16.30;53.50;;;;;;5062500;28;20465;-46
2021/04/21 10:42:47;;;;;;;13.80;6.53;;;16.30;52.80;;;;;;5073621;28;20545;-47
2021/04/21 10:45:15;;;;;;;8.80;6.60;;;16.50;52.20;;;;;;5074056;28;20510;-46
2021/04/21 10:47:46;;;;;;;9.50;5.50;;;16.60;52.80;;;;;;5072934;28;20438;-46
2021/04/21 10:50:13;;;;;;;10.50;6.03;;;16.60;52.40;;;;;;5073703;28;20479;-46
2021/04/21 10:52:41;;;;;;;5.90;5.30;;;16.40;51.20;;;;;;5073182;28;20942;-46
2021/04/21 10:55:50;;;;;;;12.47;4.83;;;17.00;50.80;;;;;;5073152;28;20449;-47
2021/04/21 10:58:17;;;;;;;7.10;5.50;;;17.30;49.50;;;;;;5067706;28;20449;-47
2021/04/21 11:00:47;;;;;;;7.43;4.63;;;17.10;48.90;;;;;;5072632;28;20444;-47
2021/04/21 11:03:15;;;;;;;6.00;5.13;;;16.70;48.90;;;;;;5072020;28;20569;-47
2021/04/21 11:05:46;;;;;;;10.63;5.57;;;17.20;50.00;;;;;;5072828;28;20596;-47
2021/04/21 11:08:16;;;;;;;7.13;5.40;;;16.70;50.70;;;;;;5073046;28;20442;-48
2021/04/21 11:10:46;;;;;;;8.97;5.70;;;16.80;51.20;;;;;;5072204;28;20432;-47
2021/04/21 11:13:15;;;;;;;6.63;5.10;;;17.10;51.80;;;;;;5071943;28;20429;-47
2021/04/21 11:15:44;;;;;;;9.43;5.60;;;16.70;51.10;;;;;;5071076;28;20479;-48
2021/04/21 11:18:29;;;;;;;10.73;5.50;;;16.50;51.10;;;;;;5071233;28;20458;-46
2021/04/21 11:21:05;;;;;;;13.53;5.67;;;16.40;50.60;;;;;;5072702;28;20477;-46
2021/04/21 11:23:55;;;;;;;6.57;4.80;;;16.30;51.30;;;;;;5072295;28;20792;-46
2021/04/21 11:26:39;;;;;;;7.90;5.03;;;16.50;51.40;;;;;;5072750;28;20474;-46
2021/04/21 11:29:08;;;;;;;8.73;4.70;;;16.40;51.20;;;;;;5072361;28;20426;-46
2021/04/21 11:32:10;;;;;;;9.13;6.13;;;16.60;48.70;;;;;;5072293;28;20438;-47
2021/04/21 11:34:37;;;;;;;11.83;6.17;;;16.50;48.80;;;;;;5068862;28;20783;-46
2021/04/21 11:37:04;;;;;;;13.57;6.30;;;16.60;49.60;;;;;;5072293;28;20517;-48
2021/04/21 11:40:00;;;;;;;11.10;5.30;;;17.00;49.80;;;;;;5072574;28;20486;-44
2021/04/21 11:42:34;;;;;;;8.03;5.43;;;16.40;49.20;;;;;;5071962;28;20470;-46
2021/04/21 11:45:08;;;;;;;12.20;5.57;;;16.90;49.80;;;;;;5072497;28;20820;-46
2021/04/21 11:47:37;;;;;;;13.07;5.90;;;17.10;49.60;;;;;;5072868;28;20447;-46
2021/04/21 11:50:14;;;;;;;7.73;5.30;;;17.10;48.60;;;;;;5070602;28;20496;-46
2021/04/21 11:52:53;;;;;;;8.87;4.73;;;17.00;48.30;;;;;;5069754;28;20483;-46
2021/04/21 11:55:29;;;;;;;7.50;5.43;;;17.40;48.50;;;;;;5071415;28;20500;-47
2021/04/21 11:57:58;;;;;;;10.50;4.90;;;17.40;49.00;;;;;;5071994;28;20513;-47
2021/04/21 12:00:28;;;;;;;8.60;5.27;;;17.40;49.50;;;;;;5072254;28;20427;-46
2021/04/21 12:02:56;;;;;;;6.10;5.10;;;17.70;50.10;;;;;;5070837;28;20475;-46
2021/04/21 12:05:25;;;;;;;9.47;4.93;;;17.70;49.90;;;;;;5071714;28;20935;-47
2021/04/21 12:07:52;;;;;;;8.97;4.83;;;18.00;49.10;;;;;;5071652;28;20958;-47
2021/04/21 12:10:20;;;;;;;6.07;5.23;;;17.80;46.80;;;;;;5070427;28;20545;-47
2021/04/21 12:12:46;;;;;;;11.60;5.60;;;17.90;45.60;;;;;;5071172;28;20444;-46
2021/04/21 12:15:14;;;;;;;7.57;5.63;;;17.60;45.80;;;;;;5071886;28;20438;-47
2021/04/21 12:17:52;;;;;;;7.60;4.40;;;17.70;46.80;;;;;;5071476;28;20437;-46
2021/04/21 12:20:25;;;;;;;7.33;4.70;;;17.70;47.50;;;;;;5071599;28;20432;-46
2021/04/21 12:22:52;;;;;;;9.30;4.60;;;18.00;47.00;;;;;;5071512;28;20486;-47
2021/04/21 12:25:23;;;;;;;9.10;4.73;;;18.00;45.40;;;;;;5070963;28;20489;-48
2021/04/21 12:27:51;;;;;;;7.17;3.93;;;17.70;45.00;;;;;;5069974;28;20738;-47
2021/04/21 12:30:19;;;;;;;13.63;5.63;;;17.80;45.50;;;;;;5071258;28;20480;-47
2021/04/21 12:32:46;;;;;;;6.17;4.37;;;18.30;45.40;;;;;;5070840;28;20616;-47
2021/04/21 12:35:15;;;;;;;7.63;4.60;;;18.00;45.20;;;;;;5070659;28;20444;-46
2021/04/21 12:37:43;;;;;;;7.53;4.50;;;18.30;45.30;;;;;;5071118;28;20451;-48
2021/04/21 12:40:20;;;;;;;8.83;4.73;;;18.30;45.50;;;;;;5070089;28;20457;-46
2021/04/21 12:42:47;;;;;;;8.70;4.43;;;18.40;45.40;;;;;;5070941;28;20475;-47
2021/04/21 12:45:24;;;;;;;10.27;5.13;;;17.90;44.60;;;;;;5070235;28;20438;-47
2021/04/21 12:47:50;;;;;;;6.70;4.50;;;18.30;44.10;;;;;;5070691;28;20473;-48
2021/04/21 12:50:18;;;;;;;9.47;5.10;;;18.30;44.60;;;;;;5071982;28;20444;-47
2021/04/21 12:52:45;;;;;;;6.20;4.43;;;18.70;44.80;;;;;;5071262;28;20439;-54
2021/04/21 12:55:27;;;;;;;4.93;3.80;;;18.60;43.80;;;;;;5070598;28;20441;-47
2021/04/21 12:57:54;;;;;;;5.73;4.43;;;18.60;43.60;;;;;;5071197;28;20433;-47
2021/04/21 13:00:26;;;;;;;6.00;4.17;;;19.20;44.90;;;;;;5071425;28;20433;-48
2021/04/21 13:02:53;;;;;;;10.60;4.57;;;19.00;44.80;;;;;;5071121;28;20481;-45
2021/04/21 13:05:45;;;;;;;6.03;4.70;;;19.30;44.70;;;;;;5071153;28;20519;-46
2021/04/21 13:08:20;;;;;;;9.77;5.20;;;19.10;42.00;;;;;;5069557;28;20901;-46
2021/04/21 13:10:47;;;;;;;6.17;4.33;;;18.90;43.10;;;;;;5070846;28;20441;-46
2021/04/21 13:13:13;;;;;;;7.07;4.47;;;18.60;42.80;;;;;;5069413;28;20449;-47
2021/04/21 13:15:40;;;;;;;11.53;4.40;;;18.60;42.60;;;;;;5070988;28;20445;-46